createdAt,value
2022-08-03T00:00:26.636Z,52.95
2022-08-03T00:03:43.737Z,54.00
2022-08-03T00:06:54.216Z,54.95
2022-08-03T00:09:59.819Z,54.32
2022-08-03T00:13:11.683Z,53.49
2022-08-03T00:16:15.426Z,54.04
2022-08-03T00:19:22.782Z,54.43
2022-08-03T00:22:26.682Z,54.58
2022-08-03T00:25:36.437Z,55.46
2022-08-03T00:28:42.282Z,55.12
2022-08-03T00:31:52.411Z,54.75
2022-08-03T00:35:18.036Z,54.53
2022-08-03T00:38:38.454Z,53.92
2022-08-03T00:41:45.455Z,55.44
2022-08-03T00:44:50.803Z,55.01
2022-08-03T00:47:55.921Z,54.05
2022-08-03T00:51:00.583Z,53.93
2022-08-03T00:54:05.907Z,53.58
2022-08-03T00:57:15.570Z,53.17
2022-08-03T01:00:22.749Z,53.41
2022-08-03T01:03:30.355Z,53.03
2022-08-03T01:06:44.838Z,53.72
2022-08-03T01:10:01.323Z,53.99
2022-08-03T01:14:03.400Z,53.82
2022-08-03T01:17:00.369Z,53.88
2022-08-03T01:20:11.089Z,54.40
2022-08-03T01:23:42.575Z,54.74
2022-08-03T01:27:09.021Z,54.14
2022-08-03T01:30:20.028Z,55.05
2022-08-03T01:33:29.743Z,55.13
2022-08-03T01:36:39.874Z,54.80
2022-08-03T01:39:45.976Z,54.45
2022-08-03T01:42:53.972Z,55.06
2022-08-03T01:46:00.903Z,55.00
2022-08-03T01:49:09.690Z,55.30
2022-08-03T01:52:19.315Z,54.87
2022-08-03T01:55:28.347Z,54.15
2022-08-03T01:58:35.411Z,54.64
2022-08-03T02:02:28.794Z,54.01
2022-08-03T02:05:12.580Z,54.71
2022-08-03T02:08:20.067Z,54.24
2022-08-03T02:11:24.410Z,55.59
2022-08-03T02:14:30.191Z,56.03
2022-08-03T02:17:38.581Z,55.50
2022-08-03T02:20:46.038Z,55.01
2022-08-03T02:23:50.116Z,55.74
2022-08-03T02:26:57.578Z,56.38
2022-08-03T02:30:07.330Z,55.66
2022-08-03T02:33:23.787Z,55.59
2022-08-03T02:36:31.860Z,55.45
2022-08-03T02:39:38.235Z,54.82
2022-08-03T02:42:47.087Z,55.17
2022-08-03T02:45:54.539Z,55.30
2022-08-03T02:49:40.779Z,54.91
2022-08-03T02:52:31.620Z,54.39
2022-08-03T02:55:43.257Z,54.96
2022-08-03T02:58:54.658Z,55.21
2022-08-03T03:02:00.385Z,55.27
2022-08-03T03:05:52.448Z,55.01
2022-08-03T03:08:36.930Z,55.27
2022-08-03T03:11:44.806Z,54.29
2022-08-03T03:14:50.967Z,55.81
2022-08-03T03:17:58.270Z,55.41
2022-08-03T03:21:06.862Z,55.31
2022-08-03T03:24:12.427Z,55.30
2022-08-03T03:27:17.684Z,55.60
2022-08-03T03:30:26.329Z,55.08
2022-08-03T03:33:30.391Z,56.00
2022-08-03T03:36:39.821Z,55.88
2022-08-03T03:39:44.565Z,54.85
2022-08-03T03:42:51.308Z,55.08
2022-08-03T03:45:56.650Z,55.53
2022-08-03T03:49:02.036Z,55.17
2022-08-03T03:52:08.964Z,55.15
2022-08-03T03:55:19.113Z,55.63
2022-08-03T03:58:26.954Z,56.00
2022-08-03T04:01:33.273Z,55.65
2022-08-03T04:04:55.557Z,56.63
2022-08-03T04:08:21.837Z,57.69
2022-08-03T04:11:32.155Z,57.19
2022-08-03T04:14:39.043Z,56.80
2022-08-03T04:17:47.550Z,56.76
2022-08-03T04:20:54.752Z,56.71
2022-08-03T04:24:05.370Z,56.18
2022-08-03T04:27:13.030Z,55.90
2022-08-03T04:30:17.852Z,56.14
2022-08-03T04:33:25.109Z,56.66
2022-08-03T04:36:39.045Z,56.49
2022-08-03T04:39:50.068Z,55.77
2022-08-03T04:42:56.935Z,55.48
2022-08-03T04:46:02.358Z,54.64
2022-08-03T04:49:08.689Z,53.75
2022-08-03T04:52:17.540Z,52.90
2022-08-03T04:55:30.184Z,51.51
2022-08-03T04:58:37.355Z,50.98
2022-08-03T05:01:43.047Z,50.44
2022-08-03T05:04:48.258Z,49.41
2022-08-03T05:07:57.906Z,48.70
2022-08-03T05:11:10.478Z,49.38
2022-08-03T05:14:14.333Z,49.34
2022-08-03T05:17:19.958Z,49.10
2022-08-03T05:20:26.330Z,48.18
2022-08-03T05:23:34.064Z,48.11
2022-08-03T05:26:42.621Z,47.66
2022-08-03T05:29:47.683Z,47.11
2022-08-03T05:32:51.729Z,47.03
2022-08-03T05:36:03.492Z,46.33
2022-08-03T05:39:08.291Z,46.63
2022-08-03T05:42:17.605Z,47.72
2022-08-03T05:45:28.249Z,48.19
2022-08-03T05:48:33.761Z,47.16
2022-08-03T05:51:38.214Z,45.48
2022-08-03T05:54:57.295Z,45.65
2022-08-03T05:58:04.706Z,44.72
2022-08-03T06:01:09.643Z,45.02
2022-08-03T06:04:14.016Z,45.39
2022-08-03T06:07:19.149Z,44.51
2022-08-03T06:10:35.456Z,43.86
2022-08-03T06:13:44.521Z,44.00
2022-08-03T06:16:49.754Z,43.96
2022-08-03T06:19:54.900Z,44.35
2022-08-03T06:23:00.336Z,44.36
2022-08-03T06:26:06.499Z,44.38
2022-08-03T06:29:12.155Z,43.80
2022-08-03T06:32:17.444Z,43.15
2022-08-03T06:35:21.741Z,42.93
2022-08-03T06:38:26.056Z,42.35
2022-08-03T06:41:37.637Z,42.28
2022-08-03T06:44:49.189Z,41.10
2022-08-03T06:48:02.965Z,41.21
2022-08-03T06:51:07.594Z,40.29
2022-08-03T06:54:12.532Z,39.40
2022-08-03T06:57:19.215Z,38.88
2022-08-03T07:00:25.605Z,39.07
2022-08-03T07:03:30.850Z,39.32
2022-08-03T07:06:35.674Z,37.67
2022-08-03T07:09:39.628Z,37.08
2022-08-03T07:12:56.233Z,36.27
2022-08-03T07:16:05.299Z,35.93
2022-08-03T07:19:09.706Z,35.12
2022-08-03T07:22:15.343Z,34.94
2022-08-03T07:25:20.130Z,33.98
2022-08-03T07:28:24.858Z,33.47
2022-08-03T07:31:34.237Z,33.03
2022-08-03T07:34:39.306Z,33.11
2022-08-03T07:37:43.331Z,31.96
2022-08-03T07:40:59.991Z,31.80
2022-08-03T07:44:04.075Z,31.70
2022-08-03T07:47:10.898Z,30.89
2022-08-03T07:50:26.747Z,30.73
2022-08-03T07:53:31.462Z,30.34
2022-08-03T07:56:42.443Z,29.27
2022-08-03T08:00:01.771Z,30.04
2022-08-03T08:03:17.341Z,29.29
2022-08-03T08:06:41.466Z,29.11
2022-08-03T08:09:45.481Z,29.38
2022-08-03T08:12:49.706Z,28.69
2022-08-03T08:15:53.896Z,28.11
2022-08-03T08:19:02.398Z,28.46
2022-08-03T08:22:07.268Z,28.37
2022-08-03T08:25:12.875Z,28.53
2022-08-03T08:28:32.731Z,29.91
2022-08-03T08:31:37.989Z,30.79
2022-08-03T08:34:44.009Z,29.88
2022-08-03T08:37:51.165Z,30.47
2022-08-03T08:40:59.655Z,30.17
2022-08-03T08:44:05.993Z,30.62
2022-08-03T08:47:10.754Z,30.98
2022-08-03T08:50:27.069Z,30.89
2022-08-03T08:53:37.675Z,30.91
2022-08-03T08:56:42.697Z,31.26
2022-08-03T08:59:49.712Z,31.83
2022-08-03T09:02:59.249Z,31.49
2022-08-03T09:06:13.396Z,30.75
2022-08-03T09:10:00.313Z,30.17
2022-08-03T09:12:45.985Z,30.88
2022-08-03T09:16:10.450Z,30.70
2022-08-03T09:19:18.943Z,30.89
2022-08-03T09:22:31.019Z,30.47
2022-08-03T09:25:52.166Z,30.87
2022-08-03T09:29:05.611Z,30.52
2022-08-03T09:32:16.033Z,32.29
2022-08-03T09:35:53.621Z,31.24
2022-08-03T09:39:07.986Z,30.91
2022-08-03T09:42:18.343Z,31.46
2022-08-03T09:45:28.171Z,31.19
2022-08-03T09:52:37.967Z,31.16
2022-08-03T09:56:36.217Z,30.50
2022-08-03T09:59:02.889Z,30.58
2022-08-03T10:02:23.124Z,29.04
2022-08-03T10:05:38.208Z,30.99
2022-08-03T10:08:43.053Z,29.96
2022-08-03T10:11:49.860Z,29.31
2022-08-03T10:14:54.522Z,28.46
2022-08-03T10:17:58.509Z,29.33
2022-08-03T10:21:09.241Z,31.49
2022-08-03T10:24:18.684Z,31.53
2022-08-03T10:27:39.786Z,30.46
2022-08-03T10:30:56.553Z,31.01
2022-08-03T10:34:04.098Z,31.40
2022-08-03T10:37:13.977Z,30.44
2022-08-03T10:40:47.527Z,31.28
2022-08-03T10:43:54.806Z,30.01
2022-08-03T10:46:59.698Z,30.51
2022-08-03T10:50:13.119Z,29.37
2022-08-03T10:53:39.508Z,28.39
2022-08-03T10:57:13.414Z,29.11
2022-08-03T11:00:30.341Z,29.90
2022-08-03T11:03:38.614Z,29.98
2022-08-03T11:07:12.339Z,28.33
2022-08-03T11:10:32.393Z,28.13
2022-08-03T11:13:59.955Z,28.15
2022-08-03T11:17:55.846Z,28.24
2022-08-03T11:25:06.418Z,28.63
2022-08-03T11:28:36.697Z,29.04
2022-08-03T11:31:55.549Z,28.86
2022-08-03T11:35:13.885Z,28.58
2022-08-03T11:43:56.990Z,28.45
2022-08-03T11:47:50.997Z,28.20
2022-08-03T11:51:22.040Z,28.47
2022-08-03T11:54:27.967Z,28.91
2022-08-03T11:59:01.582Z,28.96
2022-08-03T12:01:05.972Z,28.88
2022-08-03T12:04:10.813Z,28.96
2022-08-03T12:07:25.048Z,28.55
2022-08-03T12:10:42.416Z,26.79
2022-08-03T12:14:45.073Z,27.39
2022-08-03T12:17:19.410Z,27.65
2022-08-03T12:20:53.095Z,27.15
2022-08-03T12:24:30.906Z,27.47
2022-08-03T12:27:48.304Z,27.71
2022-08-03T12:31:07.640Z,27.28
2022-08-03T12:34:19.932Z,27.11
2022-08-03T12:37:32.163Z,26.85
2022-08-03T12:40:44.467Z,27.33
2022-08-03T12:44:00.138Z,27.52
2022-08-03T12:47:07.794Z,26.66
2022-08-03T12:50:47.689Z,26.95
2022-08-03T12:54:06.418Z,25.96
2022-08-03T12:57:27.725Z,25.79
2022-08-03T13:14:02.681Z,25.25
2022-08-03T13:17:46.034Z,25.54
2022-08-03T13:21:53.814Z,25.92
2022-08-03T13:25:10.383Z,26.18
2022-08-03T13:28:16.277Z,27.49
2022-08-03T13:31:20.985Z,27.69
2022-08-03T13:34:41.180Z,27.83
2022-08-03T13:39:15.194Z,29.01
2022-08-03T13:47:31.177Z,29.61
2022-08-03T13:50:44.941Z,29.71
2022-08-03T13:53:49.390Z,29.68
2022-08-03T13:58:03.293Z,30.03
2022-08-03T14:04:44.438Z,29.02
2022-08-03T14:07:50.548Z,28.82
2022-08-03T14:10:55.751Z,27.84
2022-08-03T14:14:00.146Z,27.59
2022-08-03T14:17:06.255Z,27.19
2022-08-03T14:20:36.617Z,27.85
2022-08-03T14:23:40.430Z,28.64
2022-08-03T14:26:45.153Z,28.71
2022-08-03T14:29:49.621Z,28.30
2022-08-03T14:32:55.949Z,28.97
2022-08-03T14:36:03.127Z,27.88
2022-08-03T14:39:08.310Z,28.27
2022-08-03T14:42:13.175Z,27.99
2022-08-03T14:45:20.410Z,27.50
2022-08-03T14:50:33.699Z,27.34
2022-08-03T14:51:51.697Z,27.31
2022-08-03T14:54:59.688Z,27.86
2022-08-03T14:58:21.204Z,27.57
2022-08-03T15:02:02.651Z,27.80
2022-08-03T15:04:50.503Z,27.42
2022-08-03T15:07:56.825Z,27.70
2022-08-03T15:11:09.296Z,27.81
2022-08-03T15:14:18.116Z,27.30
2022-08-03T15:17:26.015Z,27.23
2022-08-03T15:20:46.266Z,26.83
2022-08-03T15:23:57.218Z,26.98
2022-08-03T15:27:09.799Z,26.75
2022-08-03T15:30:26.997Z,27.13
2022-08-03T15:33:43.691Z,26.94
2022-08-03T15:37:16.503Z,27.11
2022-08-03T15:40:46.451Z,26.73
2022-08-03T15:43:53.469Z,26.85
2022-08-03T15:46:57.867Z,26.97
2022-08-03T15:50:07.830Z,26.99
2022-08-03T15:53:14.421Z,27.34
2022-08-03T15:56:21.956Z,26.77
2022-08-03T15:59:27.761Z,27.29
2022-08-03T16:02:32.704Z,27.06
2022-08-03T16:05:37.650Z,27.10
2022-08-03T16:08:46.231Z,27.05
2022-08-03T16:12:04.826Z,26.51
2022-08-03T16:15:54.582Z,27.03
2022-08-03T16:19:10.785Z,27.48
2022-08-03T16:22:19.537Z,27.40
2022-08-03T16:25:23.563Z,27.42
2022-08-03T16:28:34.191Z,27.68
2022-08-03T16:31:39.655Z,27.27
2022-08-03T16:34:55.456Z,27.43
2022-08-03T16:38:23.193Z,27.73
2022-08-03T16:41:54.455Z,28.05
2022-08-03T16:45:26.913Z,28.29
2022-08-03T16:56:09.536Z,28.34
2022-08-03T16:59:42.299Z,28.47
2022-08-03T17:03:30.977Z,28.75
2022-08-03T17:06:57.767Z,28.80
2022-08-03T17:10:08.542Z,28.72
2022-08-03T17:14:21.928Z,29.07
2022-08-03T17:18:31.849Z,29.00
2022-08-03T17:26:02.339Z,29.17
2022-08-03T17:29:13.058Z,29.25
2022-08-03T17:32:21.251Z,29.81
2022-08-03T17:35:34.691Z,30.29
2022-08-03T17:38:43.880Z,30.53
2022-08-03T17:41:54.022Z,30.98
2022-08-03T17:45:02.224Z,32.35
2022-08-03T17:48:18.582Z,32.85
2022-08-03T17:51:58.156Z,33.21
2022-08-03T17:55:57.042Z,33.21
2022-08-03T17:58:55.156Z,32.98
2022-08-03T18:02:30.686Z,33.78
2022-08-03T18:06:11.683Z,34.52
2022-08-03T18:10:04.807Z,34.34
2022-08-03T18:12:32.390Z,35.55
2022-08-03T18:15:48.721Z,35.84
2022-08-03T18:23:36.588Z,36.56
2022-08-03T18:26:51.970Z,36.43
2022-08-03T18:30:08.653Z,38.46
2022-08-03T18:34:18.665Z,38.70
2022-08-03T18:37:25.349Z,37.77
2022-08-03T18:40:32.315Z,38.69
2022-08-03T18:43:46.656Z,40.03
2022-08-03T18:47:16.286Z,40.89
2022-08-03T18:50:31.184Z,39.94
2022-08-03T18:54:03.049Z,39.82
2022-08-03T18:57:15.307Z,40.92
2022-08-03T19:00:24.231Z,41.10
2022-08-03T19:04:00.038Z,41.09
2022-08-03T19:07:44.124Z,41.33
2022-08-03T19:12:30.984Z,42.28
2022-08-03T19:16:01.350Z,42.80
2022-08-03T19:19:16.637Z,42.25
2022-08-03T19:22:27.445Z,42.50
2022-08-03T19:30:39.954Z,42.95
2022-08-03T19:33:57.258Z,43.38
2022-08-03T19:37:14.856Z,43.42
2022-08-03T19:40:25.990Z,43.63
2022-08-03T19:43:53.391Z,44.12
2022-08-03T19:47:03.077Z,43.49
2022-08-03T19:50:13.960Z,43.49
2022-08-03T19:53:41.437Z,43.25
2022-08-03T20:07:22.141Z,45.13
2022-08-03T20:11:06.631Z,45.28
2022-08-03T20:14:20.807Z,45.58
2022-08-03T20:17:56.220Z,45.35
2022-08-03T20:21:00.564Z,45.60
2022-08-03T20:24:23.335Z,45.97
2022-08-03T20:28:07.991Z,46.39
2022-08-03T20:31:02.116Z,46.04
2022-08-03T20:34:09.147Z,46.16
2022-08-03T20:37:25.617Z,46.54
2022-08-03T20:40:31.762Z,46.40
2022-08-03T20:43:36.167Z,46.44
2022-08-03T20:46:56.358Z,47.09
2022-08-03T20:50:07.756Z,47.85
2022-08-03T20:53:15.271Z,46.95
2022-08-03T20:57:27.828Z,46.63
2022-08-03T21:05:21.159Z,46.87
2022-08-03T21:17:25.124Z,46.83
2022-08-03T21:20:36.247Z,48.27
2022-08-03T21:24:10.235Z,48.02
2022-08-03T21:27:14.171Z,47.34
2022-08-03T21:30:20.568Z,47.67
2022-08-03T21:33:29.295Z,47.74
2022-08-03T21:36:39.506Z,47.53
2022-08-03T21:39:50.983Z,48.31
2022-08-03T21:43:07.910Z,48.60
2022-08-03T21:46:20.852Z,49.73
2022-08-03T21:50:04.710Z,49.16
2022-08-03T21:52:53.139Z,48.97
2022-08-03T21:55:59.644Z,49.01
2022-08-03T21:59:07.124Z,48.97
2022-08-03T22:02:24.271Z,49.93
2022-08-03T22:05:43.505Z,49.95
2022-08-03T22:08:49.190Z,49.45
2022-08-03T22:11:54.246Z,49.50
2022-08-03T22:15:02.014Z,50.00
2022-08-03T22:18:09.341Z,49.67
2022-08-03T22:21:15.223Z,50.55
2022-08-03T22:24:23.814Z,50.71
2022-08-03T22:27:34.274Z,50.75
2022-08-03T22:30:39.057Z,51.53
2022-08-03T22:33:45.963Z,51.06
2022-08-03T22:36:49.929Z,51.00
2022-08-03T22:39:54.754Z,52.28
2022-08-03T22:42:58.748Z,52.13
2022-08-03T22:46:08.931Z,51.67
2022-08-03T22:49:19.630Z,52.34
2022-08-03T22:52:24.765Z,51.85
2022-08-03T22:55:28.653Z,52.05
2022-08-03T22:58:33.185Z,51.46
2022-08-03T23:01:39.450Z,51.55
2022-08-03T23:04:46.609Z,52.29
2022-08-03T23:07:52.016Z,51.71
2022-08-03T23:11:04.814Z,51.61
2022-08-03T23:14:15.246Z,52.08
2022-08-03T23:17:21.671Z,51.83
2022-08-03T23:20:29.494Z,51.76
2022-08-03T23:23:44.633Z,51.67
2022-08-03T23:26:53.135Z,51.35
2022-08-03T23:30:00.549Z,51.52
2022-08-03T23:33:05.557Z,51.56
2022-08-03T23:36:30.888Z,52.27
2022-08-03T23:39:36.829Z,51.62
2022-08-03T23:42:48.687Z,51.36
2022-08-03T23:46:19.877Z,52.16
2022-08-03T23:49:24.033Z,52.75
2022-08-03T23:52:35.995Z,53.54
2022-08-03T23:56:04.902Z,52.35
2022-08-03T23:59:52.820Z,52.05
